sensor_id;sensor_type;location;lat;lon;timestamp;temperature;humidity
73875;HTU21D;62209;47.568;7.558;2022-11-20T00:01:50;6.67;100.00
73875;HTU21D;62209;47.568;7.558;2022-11-20T00:16:56;6.54;100.22
73875;HTU21D;62209;47.568;7.558;2022-11-20T00:32:02;6.42;100.13
73875;HTU21D;62209;47.568;7.558;2022-11-20T00:47:07;6.43;99.61
73875;HTU21D;62209;47.568;7.558;2022-11-20T01:02:13;6.43;99.83
73875;HTU21D;62209;47.568;7.558;2022-11-20T01:17:19;6.37;99.51
73875;HTU21D;62209;47.568;7.558;2022-11-20T01:32:25;6.43;99.10
73875;HTU21D;62209;47.568;7.558;2022-11-20T01:47:31;6.20;99.83
73875;HTU21D;62209;47.568;7.558;2022-11-20T02:02:40;6.23;100.25
73875;HTU21D;62209;47.568;7.558;2022-11-20T02:17:49;6.21;100.35
73875;HTU21D;62209;47.568;7.558;2022-11-20T02:32:55;6.12;100.80
73875;HTU21D;62209;47.568;7.558;2022-11-20T02:48:02;6.14;101.38
73875;HTU21D;62209;47.568;7.558;2022-11-20T03:03:08;6.16;101.70
73875;HTU21D;62209;47.568;7.558;2022-11-20T03:18:13;6.17;101.64
73875;HTU21D;62209;47.568;7.558;2022-11-20T03:33:19;6.21;101.38
73875;HTU21D;62209;47.568;7.558;2022-11-20T03:48:24;6.22;101.54
73875;HTU21D;62209;47.568;7.558;2022-11-20T04:03:30;6.15;103.38
73875;HTU21D;62209;47.568;7.558;2022-11-20T04:18:36;6.06;103.44
73875;HTU21D;62209;47.568;7.558;2022-11-20T04:33:42;5.99;102.89
73875;HTU21D;62209;47.568;7.558;2022-11-20T04:48:47;5.78;102.84
73875;HTU21D;62209;47.568;7.558;2022-11-20T05:03:53;5.79;102.95
73875;HTU21D;62209;47.568;7.558;2022-11-20T05:18:59;5.94;102.52
73875;HTU21D;62209;47.568;7.558;2022-11-20T05:34:04;5.98;102.43
73875;HTU21D;62209;47.568;7.558;2022-11-20T05:49:10;6.08;102.47
73875;HTU21D;62209;47.568;7.558;2022-11-20T06:04:15;6.15;102.04
73875;HTU21D;62209;47.568;7.558;2022-11-20T06:19:21;6.16;101.53
73875;HTU21D;62209;47.568;7.558;2022-11-20T06:34:26;6.24;100.90
73875;HTU21D;62209;47.568;7.558;2022-11-20T06:49:32;6.13;100.48
73875;HTU21D;62209;47.568;7.558;2022-11-20T07:04:40;6.19;100.11
73875;HTU21D;62209;47.568;7.558;2022-11-20T07:19:45;6.25;99.67
73875;HTU21D;62209;47.568;7.558;2022-11-20T07:34:51;6.40;100.33
73875;HTU21D;62209;47.568;7.558;2022-11-20T07:49:57;6.63;100.21
73875;HTU21D;62209;47.568;7.558;2022-11-20T08:05:03;6.78;100.04
73875;HTU21D;62209;47.568;7.558;2022-11-20T08:20:09;6.89;98.85
73875;HTU21D;62209;47.568;7.558;2022-11-20T08:35:15;7.00;97.88
73875;HTU21D;62209;47.568;7.558;2022-11-20T08:50:21;7.24;97.67
73875;HTU21D;62209;47.568;7.558;2022-11-20T09:05:26;7.65;96.23
73875;HTU21D;62209;47.568;7.558;2022-11-20T09:20:32;8.00;95.81
73875;HTU21D;62209;47.568;7.558;2022-11-20T09:35:39;8.09;96.05
73875;HTU21D;62209;47.568;7.558;2022-11-20T09:50:45;8.13;95.49
73875;HTU21D;62209;47.568;7.558;2022-11-20T10:05:54;8.23;95.62
73875;HTU21D;62209;47.568;7.558;2022-11-20T10:21:03;8.42;95.33
73875;HTU21D;62209;47.568;7.558;2022-11-20T10:36:21;8.78;93.72
73875;HTU21D;62209;47.568;7.558;2022-11-20T10:51:33;9.06;93.14
73875;HTU21D;62209;47.568;7.558;2022-11-20T11:06:46;8.95;90.71
73875;HTU21D;62209;47.568;7.558;2022-11-20T11:21:53;8.98;89.49
73875;HTU21D;62209;47.568;7.558;2022-11-20T11:37:00;9.37;87.38
73875;HTU21D;62209;47.568;7.558;2022-11-20T11:52:10;10.08;84.55
73875;HTU21D;62209;47.568;7.558;2022-11-20T12:07:22;10.51;86.24
73875;HTU21D;62209;47.568;7.558;2022-11-20T12:22:52;11.01;82.08
73875;HTU21D;62209;47.568;7.558;2022-11-20T12:38:07;10.40;86.09
73875;HTU21D;62209;47.568;7.558;2022-11-20T12:53:36;9.12;89.95
73875;HTU21D;62209;47.568;7.558;2022-11-20T13:08:49;9.36;90.26
73875;HTU21D;62209;47.568;7.558;2022-11-20T13:24:05;9.42;89.34
73875;HTU21D;62209;47.568;7.558;2022-11-20T13:39:11;9.76;87.64
73875;HTU21D;62209;47.568;7.558;2022-11-20T14:10:05;9.59;86.47
73875;HTU21D;62209;47.568;7.558;2022-11-20T14:25:24;9.81;86.22
73875;HTU21D;62209;47.568;7.558;2022-11-20T14:40:31;10.40;88.13
73875;HTU21D;62209;47.568;7.558;2022-11-20T14:55:38;10.24;88.12
73875;HTU21D;62209;47.568;7.558;2022-11-20T15:10:48;9.79;89.86
73875;HTU21D;62209;47.568;7.558;2022-11-20T15:25:55;9.35;90.69
73875;HTU21D;62209;47.568;7.558;2022-11-20T15:41:01;9.14;90.60
73875;HTU21D;62209;47.568;7.558;2022-11-20T15:56:08;8.90;93.22
73875;HTU21D;62209;47.568;7.558;2022-11-20T16:11:16;8.76;94.52
73875;HTU21D;62209;47.568;7.558;2022-11-20T16:26:22;8.26;93.33
73875;HTU21D;62209;47.568;7.558;2022-11-20T16:41:30;8.11;91.13
73875;HTU21D;62209;47.568;7.558;2022-11-20T16:56:39;7.98;91.74
73875;HTU21D;62209;47.568;7.558;2022-11-20T17:11:46;7.82;93.06
73875;HTU21D;62209;47.568;7.558;2022-11-20T17:26:53;7.76;93.19
73875;HTU21D;62209;47.568;7.558;2022-11-20T17:41:59;7.69;92.61
73875;HTU21D;62209;47.568;7.558;2022-11-20T17:57:18;7.70;85.98
73875;HTU21D;62209;47.568;7.558;2022-11-20T18:12:41;7.33;88.67
73875;HTU21D;62209;47.568;7.558;2022-11-20T18:27:47;7.22;90.96
73875;HTU21D;62209;47.568;7.558;2022-11-20T18:42:52;7.20;91.25
73875;HTU21D;62209;47.568;7.558;2022-11-20T18:58:15;6.75;95.62
73875;HTU21D;62209;47.568;7.558;2022-11-20T19:13:21;6.51;99.22
73875;HTU21D;62209;47.568;7.558;2022-11-20T19:28:26;6.40;100.01
73875;HTU21D;62209;47.568;7.558;2022-11-20T19:43:35;6.36;101.12
73875;HTU21D;62209;47.568;7.558;2022-11-20T19:58:43;6.25;101.41
73875;HTU21D;62209;47.568;7.558;2022-11-20T20:13:49;5.91;101.55
73875;HTU21D;62209;47.568;7.558;2022-11-20T20:28:55;5.53;102.35
73875;HTU21D;62209;47.568;7.558;2022-11-20T20:44:01;5.79;101.79
73875;HTU21D;62209;47.568;7.558;2022-11-20T20:59:24;5.97;102.08
73875;HTU21D;62209;47.568;7.558;2022-11-20T21:14:30;6.35;101.41
73875;HTU21D;62209;47.568;7.558;2022-11-20T21:29:36;6.79;98.75
73875;HTU21D;62209;47.568;7.558;2022-11-20T21:44:42;6.52;99.42
73875;HTU21D;62209;47.568;7.558;2022-11-20T21:59:49;6.66;99.24
73875;HTU21D;62209;47.568;7.558;2022-11-20T22:14:55;6.70;98.65
73875;HTU21D;62209;47.568;7.558;2022-11-20T22:30:00;6.57;98.58
73875;HTU21D;62209;47.568;7.558;2022-11-20T22:45:07;6.50;98.26
73875;HTU21D;62209;47.568;7.558;2022-11-20T23:00:14;6.74;96.71
73875;HTU21D;62209;47.568;7.558;2022-11-20T23:15:21;6.85;97.03
73875;HTU21D;62209;47.568;7.558;2022-11-20T23:30:27;6.68;97.80
73875;HTU21D;62209;47.568;7.558;2022-11-20T23:45:36;6.93;97.57
